sensor_id;sensor_type;location;lat;lon;timestamp;pressure;altitude;pressure_sealevel;temperature;humidity
39793;BME280;26080;42.264;24.536;2023-01-09T00:02:03;99872.72;;;-1.94;100.00
39793;BME280;26080;42.264;24.536;2023-01-09T00:04:28;99875.34;;;-1.91;100.00
39793;BME280;26080;42.264;24.536;2023-01-09T00:06:54;99882.09;;;-1.96;100.00
39793;BME280;26080;42.264;24.536;2023-01-09T00:09:21;99875.97;;;-2.08;100.00
39793;BME280;26080;42.264;24.536;2023-01-09T00:11:48;99881.19;;;-2.03;100.00
39793;BME280;26080;42.264;24.536;2023-01-09T00:14:14;99880.34;;;-2.00;100.00
39793;BME280;26080;42.264;24.536;2023-01-09T00:16:40;99884.66;;;-1.99;100.00
39793;BME280;26080;42.264;24.536;2023-01-09T00:19:05;99879.66;;;-1.89;100.00
39793;BME280;26080;42.264;24.536;2023-01-09T00:21:31;99884.69;;;-1.96;100.00
39793;BME280;26080;42.264;24.536;2023-01-09T00:23:56;99893.19;;;-2.00;100.00
39793;BME280;26080;42.264;24.536;2023-01-09T00:26:22;99886.38;;;-1.98;100.00
39793;BME280;26080;42.264;24.536;2023-01-09T00:28:49;99881.28;;;-1.92;100.00
39793;BME280;26080;42.264;24.536;2023-01-09T00:31:17;99880.53;;;-1.85;100.00
39793;BME280;26080;42.264;24.536;2023-01-09T00:33:57;99871.22;;;-1.77;100.00
39793;BME280;26080;42.264;24.536;2023-01-09T00:36:23;99873.81;;;-1.74;100.00
39793;BME280;26080;42.264;24.536;2023-01-09T00:38:49;99877.38;;;-1.63;100.00
39793;BME280;26080;42.264;24.536;2023-01-09T00:41:19;99824.59;;;-2.12;100.00
39793;BME280;26080;42.264;24.536;2023-01-09T00:43:48;99885.63;;;-1.91;100.00
39793;BME280;26080;42.264;24.536;2023-01-09T00:46:16;99879.50;;;-2.01;100.00
39793;BME280;26080;42.264;24.536;2023-01-09T00:48:44;99873.47;;;-2.04;100.00
39793;BME280;26080;42.264;24.536;2023-01-09T00:51:10;99873.38;;;-2.11;100.00
39793;BME280;26080;42.264;24.536;2023-01-09T00:53:36;99872.47;;;-2.14;100.00
39793;BME280;26080;42.264;24.536;2023-01-09T00:56:07;99870.78;;;-2.14;100.00
39793;BME280;26080;42.264;24.536;2023-01-09T00:58:34;99857.94;;;-2.14;100.00
39793;BME280;26080;42.264;24.536;2023-01-09T01:01:00;99860.63;;;-2.04;100.00
39793;BME280;26080;42.264;24.536;2023-01-09T01:03:25;99863.28;;;-1.95;100.00
39793;BME280;26080;42.264;24.536;2023-01-09T01:05:50;99857.28;;;-1.99;100.00
39793;BME280;26080;42.264;24.536;2023-01-09T01:08:35;99860.56;;;-2.08;100.00
39793;BME280;26080;42.264;24.536;2023-01-09T01:11:08;99855.38;;;-2.15;100.00
39793;BME280;26080;42.264;24.536;2023-01-09T01:13:36;99850.16;;;-2.20;100.00
39793;BME280;26080;42.264;24.536;2023-01-09T01:16:09;99852.06;;;-2.05;100.00
39793;BME280;26080;42.264;24.536;2023-01-09T01:18:36;99851.41;;;-1.87;100.00
39793;BME280;26080;42.264;24.536;2023-01-09T01:21:10;99829.88;;;-2.01;100.00
39793;BME280;26080;42.264;24.536;2023-01-09T01:23:36;99840.13;;;-2.01;100.00
39793;BME280;26080;42.264;24.536;2023-01-09T01:26:09;99806.66;;;-2.11;100.00
39793;BME280;26080;42.264;24.536;2023-01-09T01:28:36;99834.28;;;-1.91;100.00
39793;BME280;26080;42.264;24.536;2023-01-09T01:31:02;99825.59;;;-1.99;100.00
39793;BME280;26080;42.264;24.536;2023-01-09T01:33:27;99818.72;;;-2.03;100.00
39793;BME280;26080;42.264;24.536;2023-01-09T01:36:01;99809.34;;;-2.01;100.00
39793;BME280;26080;42.264;24.536;2023-01-09T01:38:28;99811.91;;;-2.01;100.00
39793;BME280;26080;42.264;24.536;2023-01-09T01:40:54;99816.09;;;-2.06;100.00
39793;BME280;26080;42.264;24.536;2023-01-09T01:43:20;99802.31;;;-2.18;100.00
39793;BME280;26080;42.264;24.536;2023-01-09T01:45:45;99803.16;;;-2.19;100.00
39793;BME280;26080;42.264;24.536;2023-01-09T01:48:14;99805.63;;;-2.25;100.00
39793;BME280;26080;42.264;24.536;2023-01-09T01:50:52;99794.47;;;-2.30;100.00
39793;BME280;26080;42.264;24.536;2023-01-09T01:53:23;99798.75;;;-2.29;100.00
39793;BME280;26080;42.264;24.536;2023-01-09T01:58:41;99785.75;;;-2.41;100.00
39793;BME280;26080;42.264;24.536;2023-01-09T02:01:08;99781.53;;;-2.38;100.00
39793;BME280;26080;42.264;24.536;2023-01-09T02:03:35;99785.81;;;-2.35;100.00
39793;BME280;26080;42.264;24.536;2023-01-09T02:06:02;99786.81;;;-2.24;100.00
39793;BME280;26080;42.264;24.536;2023-01-09T02:08:29;99760.22;;;-2.32;100.00
39793;BME280;26080;42.264;24.536;2023-01-09T02:10:55;99746.44;;;-2.39;100.00
39793;BME280;26080;42.264;24.536;2023-01-09T02:13:20;99776.72;;;-2.09;100.00
39793;BME280;26080;42.264;24.536;2023-01-09T02:19:03;99774.13;;;-2.13;100.00
39793;BME280;26080;42.264;24.536;2023-01-09T02:21:11;99760.72;;;-1.86;100.00
39793;BME280;26080;42.264;24.536;2023-01-09T02:35:31;99772.06;;;-1.64;100.00
39793;BME280;26080;42.264;24.536;2023-01-09T02:40:49;99765.25;;;-1.59;100.00
39793;BME280;26080;42.264;24.536;2023-01-09T02:43:18;99767.84;;;-1.55;100.00
39793;BME280;26080;42.264;24.536;2023-01-09T02:45:43;99760.13;;;-1.58;100.00
39793;BME280;26080;42.264;24.536;2023-01-09T02:48:10;99758.44;;;-1.54;100.00
39793;BME280;26080;42.264;24.536;2023-01-09T02:50:42;99766.25;;;-1.42;100.00
39793;BME280;26080;42.264;24.536;2023-01-09T03:04:10;99754.09;;;-1.63;100.00
39793;BME280;26080;42.264;24.536;2023-01-09T03:06:58;99744.69;;;-1.62;100.00
39793;BME280;26080;42.264;24.536;2023-01-09T03:09:28;99745.66;;;-1.50;100.00
39793;BME280;26080;42.264;24.536;2023-01-09T03:12:01;99746.53;;;-1.43;100.00
39793;BME280;26080;42.264;24.536;2023-01-09T03:14:29;99750.16;;;-1.18;100.00
39793;BME280;26080;42.264;24.536;2023-01-09T03:17:01;99724.47;;;-1.18;100.00
39793;BME280;26080;42.264;24.536;2023-01-09T03:19:30;99749.41;;;-1.03;100.00
39793;BME280;26080;42.264;24.536;2023-01-09T03:21:57;99723.69;;;-1.08;100.00
39793;BME280;26080;42.264;24.536;2023-01-09T03:24:23;99751.28;;;-0.73;100.00
39793;BME280;26080;42.264;24.536;2023-01-09T03:26:49;99738.47;;;-0.67;100.00
39793;BME280;26080;42.264;24.536;2023-01-09T03:29:15;99738.50;;;-0.55;100.00
39793;BME280;26080;42.264;24.536;2023-01-09T03:31:40;99737.63;;;-0.60;100.00
39793;BME280;26080;42.264;24.536;2023-01-09T03:34:05;99747.19;;;-0.33;100.00
39793;BME280;26080;42.264;24.536;2023-01-09T03:36:31;99747.22;;;-0.22;100.00
39793;BME280;26080;42.264;24.536;2023-01-09T03:38:57;99743.84;;;-0.08;100.00
39793;BME280;26080;42.264;24.536;2023-01-09T03:41:22;99743.84;;;-0.05;100.00
39793;BME280;26080;42.264;24.536;2023-01-09T03:43:47;99740.44;;;0.10;100.00
39793;BME280;26080;42.264;24.536;2023-01-09T03:46:14;99738.72;;;0.12;100.00
39793;BME280;26080;42.264;24.536;2023-01-09T03:48:40;99738.75;;;0.31;100.00
39793;BME280;26080;42.264;24.536;2023-01-09T03:51:08;99747.34;;;0.29;100.00
39793;BME280;26080;42.264;24.536;2023-01-09T03:53:33;99737.00;;;0.23;100.00
39793;BME280;26080;42.264;24.536;2023-01-09T03:55:59;99737.88;;;0.25;100.00
39793;BME280;26080;42.264;24.536;2023-01-09T03:58:25;99757.63;;;0.39;100.00
39793;BME280;26080;42.264;24.536;2023-01-09T04:00:53;99757.66;;;0.28;100.00
39793;BME280;26080;42.264;24.536;2023-01-09T04:03:21;99749.03;;;0.24;100.00
39793;BME280;26080;42.264;24.536;2023-01-09T04:05:47;99746.47;;;0.20;100.00
39793;BME280;26080;42.264;24.536;2023-01-09T04:08:14;99741.31;;;0.15;100.00
39793;BME280;26080;42.264;24.536;2023-01-09T04:10:43;99761.09;;;0.28;100.00
39793;BME280;26080;42.264;24.536;2023-01-09T04:13:09;99741.31;;;0.21;100.00
39793;BME280;26080;42.264;24.536;2023-01-09T04:15:34;99761.09;;;0.44;100.00
39793;BME280;26080;42.264;24.536;2023-01-09T04:17:59;99765.38;;;0.48;100.00
39793;BME280;26080;42.264;24.536;2023-01-09T04:20:25;99770.53;;;0.36;100.00
39793;BME280;26080;42.264;24.536;2023-01-09T04:22:51;99769.69;;;0.29;100.00
39793;BME280;26080;42.264;24.536;2023-01-09T04:25:16;99765.38;;;0.28;100.00
39793;BME280;26080;42.264;24.536;2023-01-09T04:27:42;99751.63;;;0.21;100.00
39793;BME280;26080;42.264;24.536;2023-01-09T04:30:08;99765.34;;;0.23;100.00
39793;BME280;26080;42.264;24.536;2023-01-09T04:32:33;99761.06;;;0.16;100.00
39793;BME280;26080;42.264;24.536;2023-01-09T04:34:59;99765.38;;;0.39;100.00
39793;BME280;26080;42.264;24.536;2023-01-09T04:37:25;99771.38;;;0.33;100.00
39793;BME280;26080;42.264;24.536;2023-01-09T04:39:53;99759.34;;;0.20;100.00
39793;BME280;26080;42.264;24.536;2023-01-09T04:42:22;99767.06;;;0.20;100.00
39793;BME280;26080;42.264;24.536;2023-01-09T04:44:47;99769.66;;;0.32;100.00
39793;BME280;26080;42.264;24.536;2023-01-09T04:47:16;99767.97;;;0.52;100.00
39793;BME280;26080;42.264;24.536;2023-01-09T04:49:41;99776.59;;;0.70;100.00
39793;BME280;26080;42.264;24.536;2023-01-09T04:52:07;99758.53;;;0.62;100.00
39793;BME280;26080;42.264;24.536;2023-01-09T04:54:32;99766.25;;;0.73;100.00
39793;BME280;26080;42.264;24.536;2023-01-09T04:56:58;99767.97;;;0.54;100.00
39793;BME280;26080;42.264;24.536;2023-01-09T04:59:24;99776.56;;;0.76;100.00
39793;BME280;26080;42.264;24.536;2023-01-09T05:01:49;99770.53;;;0.66;100.00
39793;BME280;26080;42.264;24.536;2023-01-09T05:04:16;99775.69;;;0.63;100.00
39793;BME280;26080;42.264;24.536;2023-01-09T05:06:42;99776.56;;;0.56;100.00
39793;BME280;26080;42.264;24.536;2023-01-09T05:09:07;99785.13;;;0.52;100.00
39793;BME280;26080;42.264;24.536;2023-01-09T05:11:34;99781.72;;;0.45;100.00
39793;BME280;26080;42.264;24.536;2023-01-09T05:14:00;99781.69;;;0.38;100.00
39793;BME280;26080;42.264;24.536;2023-01-09T05:16:25;99768.78;;;0.22;100.00
39793;BME280;26080;42.264;24.536;2023-01-09T05:18:50;99779.09;;;0.22;100.00
39793;BME280;26080;42.264;24.536;2023-01-09T05:21:21;99779.94;;;0.21;100.00
39793;BME280;26080;42.264;24.536;2023-01-09T05:23:46;99749.88;;;0.08;100.00
39793;BME280;26080;42.264;24.536;2023-01-09T05:26:12;99773.94;;;0.22;100.00
39793;BME280;26080;42.264;24.536;2023-01-09T05:28:37;99779.97;;;0.31;100.00
39793;BME280;26080;42.264;24.536;2023-01-09T05:31:03;99766.25;;;0.28;100.00
39793;BME280;26080;42.264;24.536;2023-01-09T05:33:29;99762.81;;;0.31;100.00
39793;BME280;26080;42.264;24.536;2023-01-09T05:35:54;99772.25;;;0.37;100.00
39793;BME280;26080;42.264;24.536;2023-01-09T05:38:19;99775.69;;;0.43;100.00
39793;BME280;26080;42.264;24.536;2023-01-09T05:40:45;99779.13;;;0.64;100.00
39793;BME280;26080;42.264;24.536;2023-01-09T05:43:10;99760.22;;;0.68;100.00
39793;BME280;26080;42.264;24.536;2023-01-09T05:45:36;99767.09;;;0.66;100.00
39793;BME280;26080;42.264;24.536;2023-01-09T05:48:01;99758.50;;;0.65;100.00
39793;BME280;26080;42.264;24.536;2023-01-09T05:50:27;99767.09;;;0.67;100.00
39793;BME280;26080;42.264;24.536;2023-01-09T05:52:53;99764.53;;;0.76;100.00
39793;BME280;26080;42.264;24.536;2023-01-09T05:55:18;99770.56;;;0.71;100.00
39793;BME280;26080;42.264;24.536;2023-01-09T05:57:44;99767.97;;;0.68;100.00
39793;BME280;26080;42.264;24.536;2023-01-09T06:00:10;99763.69;;;0.70;100.00
39793;BME280;26080;42.264;24.536;2023-01-09T06:02:36;99767.13;;;0.70;100.00
39793;BME280;26080;42.264;24.536;2023-01-09T06:05:04;99767.13;;;0.82;100.00
39793;BME280;26080;42.264;24.536;2023-01-09T06:07:30;99773.13;;;0.83;100.00
39793;BME280;26080;42.264;24.536;2023-01-09T06:09:55;99739.59;;;0.68;100.00
39793;BME280;26080;42.264;24.536;2023-01-09T06:12:21;99761.09;;;0.88;100.00
39793;BME280;26080;42.264;24.536;2023-01-09T06:14:47;99763.66;;;0.99;100.00
39793;BME280;26080;42.264;24.536;2023-01-09T06:17:12;99755.91;;;1.14;100.00
39793;BME280;26080;42.264;24.536;2023-01-09T06:19:37;99759.31;;;1.22;100.00
39793;BME280;26080;42.264;24.536;2023-01-09T06:22:03;99749.84;;;1.30;100.00
39793;BME280;26080;42.264;24.536;2023-01-09T06:24:28;99761.88;;;1.37;100.00
39793;BME280;26080;42.264;24.536;2023-01-09T06:26:54;99761.81;;;1.46;100.00
39793;BME280;26080;42.264;24.536;2023-01-09T06:29:19;99768.69;;;1.57;100.00
39793;BME280;26080;42.264;24.536;2023-01-09T06:31:45;99761.78;;;1.65;100.00
39793;BME280;26080;42.264;24.536;2023-01-09T06:34:10;99765.19;;;1.70;100.00
39793;BME280;26080;42.264;24.536;2023-01-09T06:36:37;99749.63;;;1.77;100.00
39793;BME280;26080;42.264;24.536;2023-01-09T06:39:02;99764.28;;;1.78;100.00
39793;BME280;26080;42.264;24.536;2023-01-09T06:41:27;99771.94;;;1.98;100.00
39793;BME280;26080;42.264;24.536;2023-01-09T06:43:53;99770.19;;;2.00;100.00
39793;BME280;26080;42.264;24.536;2023-01-09T06:46:19;99765.03;;;2.06;100.00
39793;BME280;26080;42.264;24.536;2023-01-09T06:48:44;99764.13;;;2.12;100.00
39793;BME280;26080;42.264;24.536;2023-01-09T06:51:09;99765.00;;;2.03;100.00
39793;BME280;26080;42.264;24.536;2023-01-09T06:53:35;99730.78;;;1.65;100.00
39793;BME280;26080;42.264;24.536;2023-01-09T06:56:01;99781.50;;;1.83;100.00
39793;BME280;26080;42.264;24.536;2023-01-09T06:58:27;99772.88;;;1.82;100.00
39793;BME280;26080;42.264;24.536;2023-01-09T07:00:53;99734.25;;;1.59;100.00
39793;BME280;26080;42.264;24.536;2023-01-09T07:03:20;99753.97;;;1.80;100.00
39793;BME280;26080;42.264;24.536;2023-01-09T07:05:47;99739.38;;;1.67;100.00
39793;BME280;26080;42.264;24.536;2023-01-09T07:08:13;99728.97;;;1.77;100.00
39793;BME280;26080;42.264;24.536;2023-01-09T07:10:40;99752.97;;;1.99;100.00
39793;BME280;26080;42.264;24.536;2023-01-09T07:13:06;99741.75;;;2.03;100.00
39793;BME280;26080;42.264;24.536;2023-01-09T07:15:32;99748.66;;;2.01;100.00
39793;BME280;26080;42.264;24.536;2023-01-09T07:17:57;99746.91;;;2.05;100.00
39793;BME280;26080;42.264;24.536;2023-01-09T07:20:23;99722.88;;;1.91;100.00
39793;BME280;26080;42.264;24.536;2023-01-09T07:22:48;99740.91;;;2.07;100.00
39793;BME280;26080;42.264;24.536;2023-01-09T07:25:14;99743.38;;;2.24;100.00
39793;BME280;26080;42.264;24.536;2023-01-09T07:27:39;99736.47;;;2.25;100.00
39793;BME280;26080;42.264;24.536;2023-01-09T07:30:05;99739.00;;;2.29;100.00
39793;BME280;26080;42.264;24.536;2023-01-09T07:32:32;99719.25;;;2.25;100.00
39793;BME280;26080;42.264;24.536;2023-01-09T07:34:57;99733.72;;;2.46;100.00
39793;BME280;26080;42.264;24.536;2023-01-09T07:37:23;99727.75;;;2.40;100.00
39793;BME280;26080;42.264;24.536;2023-01-09T07:39:49;99725.19;;;2.38;100.00
39793;BME280;26080;42.264;24.536;2023-01-09T07:42:14;99721.66;;;2.44;100.00
39793;BME280;26080;42.264;24.536;2023-01-09T07:44:40;99730.31;;;2.41;100.00
39793;BME280;26080;42.264;24.536;2023-01-09T07:47:05;99732.88;;;2.44;100.00
39793;BME280;26080;42.264;24.536;2023-01-09T07:49:31;99729.47;;;2.41;100.00
39793;BME280;26080;42.264;24.536;2023-01-09T07:51:56;99718.06;;;2.64;100.00
39793;BME280;26080;42.264;24.536;2023-01-09T07:54:22;99725.75;;;2.71;100.00
39793;BME280;26080;42.264;24.536;2023-01-09T07:56:48;99725.75;;;2.75;100.00
39793;BME280;26080;42.264;24.536;2023-01-09T07:59:14;99729.28;;;2.65;100.00
39793;BME280;26080;42.264;24.536;2023-01-09T08:01:39;99716.38;;;2.62;100.00
39793;BME280;26080;42.264;24.536;2023-01-09T08:04:05;99726.63;;;2.71;100.00
39793;BME280;26080;42.264;24.536;2023-01-09T08:06:30;99693.09;;;2.59;100.00
39793;BME280;26080;42.264;24.536;2023-01-09T08:08:57;99718.84;;;2.76;100.00
39793;BME280;26080;42.264;24.536;2023-01-09T08:11:23;99710.22;;;2.74;100.00
39793;BME280;26080;42.264;24.536;2023-01-09T08:13:50;99706.69;;;2.82;100.00
39793;BME280;26080;42.264;24.536;2023-01-09T08:16:15;99712.53;;;3.01;100.00
39793;BME280;26080;42.264;24.536;2023-01-09T08:18:41;99718.31;;;3.26;100.00
39793;BME280;26080;42.264;24.536;2023-01-09T08:21:07;99704.63;;;3.18;100.00
39793;BME280;26080;42.264;24.536;2023-01-09T08:23:32;99689.97;;;3.14;100.00
39793;BME280;26080;42.264;24.536;2023-01-09T08:25:58;99709.63;;;3.33;100.00
39793;BME280;26080;42.264;24.536;2023-01-09T08:28:23;99710.31;;;3.46;100.00
39793;BME280;26080;42.264;24.536;2023-01-09T08:30:48;99705.00;;;3.58;100.00
39793;BME280;26080;42.264;24.536;2023-01-09T08:33:14;99714.47;;;3.59;100.00
39793;BME280;26080;42.264;24.536;2023-01-09T08:35:41;99713.69;;;3.52;100.00
39793;BME280;26080;42.264;24.536;2023-01-09T08:38:07;99705.97;;;3.49;100.00
39793;BME280;26080;42.264;24.536;2023-01-09T08:40:32;99698.22;;;3.48;100.00
39793;BME280;26080;42.264;24.536;2023-01-09T08:42:58;99697.41;;;3.44;100.00
39793;BME280;26080;42.264;24.536;2023-01-09T08:45:42;99713.75;;;3.48;100.00
39793;BME280;26080;42.264;24.536;2023-01-09T08:48:25;99710.03;;;3.69;100.00
39793;BME280;26080;42.264;24.536;2023-01-09T08:50:50;99704.88;;;3.67;100.00
39793;BME280;26080;42.264;24.536;2023-01-09T08:53:18;99706.50;;;3.74;100.00
39793;BME280;26080;42.264;24.536;2023-01-09T08:55:44;99687.72;;;3.60;100.00
39793;BME280;26080;42.264;24.536;2023-01-09T10:53:19;99592.41;;;4.82;100.00
39793;BME280;26080;42.264;24.536;2023-01-09T10:55:47;99590.25;;;5.02;100.00
39793;BME280;26080;42.264;24.536;2023-01-09T10:58:15;99589.91;;;5.21;100.00
39793;BME280;26080;42.264;24.536;2023-01-09T11:00:42;99598.63;;;5.17;100.00
39793;BME280;26080;42.264;24.536;2023-01-09T11:03:27;99590.97;;;5.11;100.00
39793;BME280;26080;42.264;24.536;2023-01-09T11:05:55;99585.06;;;5.02;100.00
39793;BME280;26080;42.264;24.536;2023-01-09T11:08:40;99577.00;;;5.16;100.00
39793;BME280;26080;42.264;24.536;2023-01-09T11:11:07;99568.72;;;5.39;100.00
39793;BME280;26080;42.264;24.536;2023-01-09T11:13:35;99558.06;;;5.51;100.00
39793;BME280;26080;42.264;24.536;2023-01-09T11:16:13;99563.94;;;5.58;100.00
39793;BME280;26080;42.264;24.536;2023-01-09T11:18:54;99556.69;;;5.72;100.00
39793;BME280;26080;42.264;24.536;2023-01-09T11:26:40;99542.13;;;6.02;100.00
39793;BME280;26080;42.264;24.536;2023-01-09T11:31:40;99521.69;;;6.22;100.00
39793;BME280;26080;42.264;24.536;2023-01-09T11:34:15;99518.19;;;6.23;100.00
39793;BME280;26080;42.264;24.536;2023-01-09T11:36:42;99519.75;;;6.31;100.00
39793;BME280;26080;42.264;24.536;2023-01-09T11:39:24;99483.25;;;6.34;100.00
39793;BME280;26080;42.264;24.536;2023-01-09T11:41:59;99499.44;;;6.43;100.00
39793;BME280;26080;42.264;24.536;2023-01-09T11:44:25;99501.69;;;6.24;100.00
39793;BME280;26080;42.264;24.536;2023-01-09T11:46:52;99498.03;;;6.32;100.00
39793;BME280;26080;42.264;24.536;2023-01-09T11:49:29;99502.34;;;6.33;100.00
39793;BME280;26080;42.264;24.536;2023-01-09T11:52:17;99494.50;;;6.34;100.00
39793;BME280;26080;42.264;24.536;2023-01-09T11:55:01;99471.50;;;6.19;100.00
39793;BME280;26080;42.264;24.536;2023-01-09T11:57:30;99486.88;;;6.27;100.00
39793;BME280;26080;42.264;24.536;2023-01-09T12:00:00;99476.63;;;6.22;100.00
39793;BME280;26080;42.264;24.536;2023-01-09T12:05:19;99474.63;;;6.32;100.00
39793;BME280;26080;42.264;24.536;2023-01-09T12:08:38;99475.19;;;6.10;100.00
39793;BME280;26080;42.264;24.536;2023-01-09T12:11:27;99464.69;;;6.13;100.00
39793;BME280;26080;42.264;24.536;2023-01-09T12:14:12;99467.88;;;6.24;100.00
39793;BME280;26080;42.264;24.536;2023-01-09T12:20:01;99454.41;;;6.41;100.00
39793;BME280;26080;42.264;24.536;2023-01-09T12:25:32;99412.59;;;6.16;100.00
39793;BME280;26080;42.264;24.536;2023-01-09T12:36:24;99453.09;;;6.56;100.00
39793;BME280;26080;42.264;24.536;2023-01-09T12:39:11;99428.88;;;6.54;100.00
39793;BME280;26080;42.264;24.536;2023-01-09T12:44:43;99430.38;;;6.63;100.00
39793;BME280;26080;42.264;24.536;2023-01-09T12:47:10;99425.38;;;6.55;100.00
39793;BME280;26080;42.264;24.536;2023-01-09T12:50:02;99395.19;;;6.20;100.00
39793;BME280;26080;42.264;24.536;2023-01-09T12:52:41;99418.69;;;6.15;100.00
39793;BME280;26080;42.264;24.536;2023-01-09T12:55:23;99420.50;;;6.13;100.00
39793;BME280;26080;42.264;24.536;2023-01-09T12:57:57;99413.78;;;6.06;100.00
39793;BME280;26080;42.264;24.536;2023-01-09T13:00:42;99416.66;;;5.96;100.00
39793;BME280;26080;42.264;24.536;2023-01-09T13:03:27;99424.81;;;5.80;100.00
39793;BME280;26080;42.264;24.536;2023-01-09T13:05:56;99415.75;;;5.62;100.00
39793;BME280;26080;42.264;24.536;2023-01-09T13:08:31;99415.19;;;5.51;100.00
39793;BME280;26080;42.264;24.536;2023-01-09T13:11:05;99409.19;;;5.48;100.00
39793;BME280;26080;42.264;24.536;2023-01-09T13:13:50;99417.72;;;5.17;100.00
39793;BME280;26080;42.264;24.536;2023-01-09T13:16:26;99420.28;;;5.19;100.00
39793;BME280;26080;42.264;24.536;2023-01-09T13:18:59;99422.38;;;5.40;100.00
39793;BME280;26080;42.264;24.536;2023-01-09T13:21:28;99405.56;;;5.19;100.00
39793;BME280;26080;42.264;24.536;2023-01-09T13:26:53;99419.84;;;5.37;100.00
39793;BME280;26080;42.264;24.536;2023-01-09T13:29:26;99420.81;;;5.33;100.00
39793;BME280;26080;42.264;24.536;2023-01-09T13:34:57;99412.16;;;5.32;100.00
39793;BME280;26080;42.264;24.536;2023-01-09T13:37:33;99433.75;;;5.36;100.00
39793;BME280;26080;42.264;24.536;2023-01-09T13:40:04;99429.22;;;5.43;100.00
39793;BME280;26080;42.264;24.536;2023-01-09T13:42:31;99433.63;;;5.41;100.00
39793;BME280;26080;42.264;24.536;2023-01-09T13:45:28;99425.06;;;5.37;100.00
39793;BME280;26080;42.264;24.536;2023-01-09T13:50:37;99431.88;;;5.41;100.00
39793;BME280;26080;42.264;24.536;2023-01-09T14:00:58;99433.75;;;5.36;100.00
39793;BME280;26080;42.264;24.536;2023-01-09T14:03:31;99441.41;;;5.41;100.00
39793;BME280;26080;42.264;24.536;2023-01-09T14:08:25;99429.47;;;5.68;100.00
39793;BME280;26080;42.264;24.536;2023-01-09T14:10:55;99426.28;;;5.56;100.00
39793;BME280;26080;42.264;24.536;2023-01-09T14:13:24;99426.50;;;5.47;100.00
39793;BME280;26080;42.264;24.536;2023-01-09T14:15:52;99411.00;;;5.44;100.00
39793;BME280;26080;42.264;24.536;2023-01-09T14:18:28;99405.72;;;5.47;100.00
39793;BME280;26080;42.264;24.536;2023-01-09T14:21:09;99379.25;;;5.33;100.00
39793;BME280;26080;42.264;24.536;2023-01-09T14:26:41;99392.47;;;5.24;100.00
39793;BME280;26080;42.264;24.536;2023-01-09T14:34:52;99365.09;;;5.11;100.00
39793;BME280;26080;42.264;24.536;2023-01-09T14:37:25;99369.41;;;5.12;100.00
39793;BME280;26080;42.264;24.536;2023-01-09T14:39:52;99387.50;;;5.15;100.00
39793;BME280;26080;42.264;24.536;2023-01-09T14:42:23;99397.22;;;5.05;100.00
39793;BME280;26080;42.264;24.536;2023-01-09T14:45:05;99398.41;;;4.92;100.00
39793;BME280;26080;42.264;24.536;2023-01-09T14:47:43;99389.69;;;4.96;100.00
39793;BME280;26080;42.264;24.536;2023-01-09T14:50:41;99389.03;;;4.86;100.00
39793;BME280;26080;42.264;24.536;2023-01-09T15:03:44;99386.44;;;4.86;100.00
39793;BME280;26080;42.264;24.536;2023-01-09T15:06:24;99385.63;;;4.84;100.00
39793;BME280;26080;42.264;24.536;2023-01-09T15:09:06;99384.84;;;4.81;100.00
39793;BME280;26080;42.264;24.536;2023-01-09T15:11:34;99371.03;;;4.80;100.00
39793;BME280;26080;42.264;24.536;2023-01-09T15:14:03;99374.00;;;4.62;100.00
39793;BME280;26080;42.264;24.536;2023-01-09T15:16:29;99367.94;;;4.63;100.00
39793;BME280;26080;42.264;24.536;2023-01-09T15:18:58;99375.75;;;4.61;100.00
39793;BME280;26080;42.264;24.536;2023-01-09T15:21:27;99375.50;;;4.72;100.00
39793;BME280;26080;42.264;24.536;2023-01-09T15:24:10;99362.75;;;4.63;100.00
39793;BME280;26080;42.264;24.536;2023-01-09T15:26:37;99358.34;;;4.66;100.00
39793;BME280;26080;42.264;24.536;2023-01-09T15:29:14;99386.44;;;4.86;100.00
39793;BME280;26080;42.264;24.536;2023-01-09T15:31:43;99346.97;;;4.72;100.00
39793;BME280;26080;42.264;24.536;2023-01-09T15:34:17;99354.56;;;4.80;100.00
39793;BME280;26080;42.264;24.536;2023-01-09T15:36:43;99373.28;;;4.94;100.00
39793;BME280;26080;42.264;24.536;2023-01-09T15:39:09;99361.22;;;4.91;100.00
39793;BME280;26080;42.264;24.536;2023-01-09T15:41:36;99335.72;;;4.73;100.00
39793;BME280;26080;42.264;24.536;2023-01-09T15:44:26;99362.25;;;4.84;100.00
39793;BME280;26080;42.264;24.536;2023-01-09T15:46:58;99359.88;;;4.75;100.00
39793;BME280;26080;42.264;24.536;2023-01-09T15:49:25;99313.06;;;4.42;100.00
39793;BME280;26080;42.264;24.536;2023-01-09T15:51:51;99367.16;;;4.59;100.00
39793;BME280;26080;42.264;24.536;2023-01-09T15:54:29;99367.94;;;4.63;100.00
39793;BME280;26080;42.264;24.536;2023-01-09T15:57:25;99362.06;;;4.55;100.00
39793;BME280;26080;42.264;24.536;2023-01-09T15:59:52;99344.19;;;4.42;100.00
39793;BME280;26080;42.264;24.536;2023-01-09T16:02:19;99343.47;;;4.34;100.00
39793;BME280;26080;42.264;24.536;2023-01-09T16:05:08;99354.81;;;4.30;100.00
39793;BME280;26080;42.264;24.536;2023-01-09T16:07:43;99348.81;;;4.28;100.00
39793;BME280;26080;42.264;24.536;2023-01-09T16:10:23;99320.69;;;4.08;100.00
39793;BME280;26080;42.264;24.536;2023-01-09T16:12:50;99341.91;;;4.27;100.00
39793;BME280;26080;42.264;24.536;2023-01-09T16:15:18;99347.00;;;4.32;100.00
39793;BME280;26080;42.264;24.536;2023-01-09T16:20:37;99344.25;;;4.39;100.00
39793;BME280;26080;42.264;24.536;2023-01-09T16:23:28;99346.06;;;4.34;100.00
39793;BME280;26080;42.264;24.536;2023-01-09T16:26:11;99343.53;;;4.33;100.00
39793;BME280;26080;42.264;24.536;2023-01-09T16:28:37;99336.59;;;4.33;100.00
39793;BME280;26080;42.264;24.536;2023-01-09T16:31:16;99341.81;;;4.32;100.00
39793;BME280;26080;42.264;24.536;2023-01-09T16:33:44;99333.88;;;4.39;100.00
39793;BME280;26080;42.264;24.536;2023-01-09T16:36:11;99322.66;;;4.39;100.00